Cleveland, OH

6:23 AM EDT on March 27, 2015 (GMT -0400)
Lorain County Regional | | Change Station
CLOSE
Current Station
Airport
Location: Lorain / Elyria,
Elevation: 794 ft
Nearby Weather Stations

Elev 794 ft 41.35 °N, 82.18 °W | Updated 30 minutes ago

Overcast
Overcast
30 °F
Feels Like 21 °F
N
10
Wind Variable Wind from NNE

Today
High -- | Low -- °F
--% Chance of Precip.
Yesterday
High -- | Low -- °F
Precip. -- in
7:18 AM 7:46 PM
Waxing Crescent, 51% visible
Pressure 29.94 in
Visibility 9.0 miles
Clouds Mostly Cloudy 900 ft
Overcast 1500 ft
Windchill 21 °F
Dew Point 27 °F
Humidity 88%
Rainfall 0.00 in
Snow Depth Not available.
UV 0 out of 12
Pollen .70 out of 12
Air Quality Not available.
Flu Activity Not available.
METAR KLPR 270953Z AUTO 02009KT 9SM -SN BKN009 OVC015 M01/M03 A2992 RMK AO2 SNE06B30 CIG 007V012 SLP139 P0000 T10111028 TSNO

More Conditions Fewer Conditions

Pressure 29.94 in
Visibility 9.0 miles
Clouds Mostly Cloudy 900 ft
Overcast 1500 ft
Windchill 21 °F
Dew Point 27 °F
Humidity 88%
Rainfall 0.00 in
Snow Depth Not available.
UV 0 out of 12
Pollen .70 out of 12
Air Quality Not available.
Flu Activity Not available.
METAR KLPR 270953Z AUTO 02009KT 9SM -SN BKN009 OVC015 M01/M03 A2992 RMK AO2 SNE06B30 CIG 007V012 SLP139 P0000 T10111028 TSNO

More Conditions Fewer Conditions

10-Day Weather Forecast

Almanac

Astronomy

Mar. 27, 2015 Rise Set
Actual Time
Civil Twilight
Nautical Twilight
Astronomical Twilight
Moon
Length of Visible Light
Length of Day
Tomorrow will be .
, % of the Moon is Illuminated

Today's Extremes

State Highs State Lows

Community

WunderPhotos

Upload Photos

1,808,706 photos uploaded!

WunderBlogs® & News

Nearby

Air Quality

  Air Quality AQ Index Pollutant
Not available.

Snow Depth

Station Depth Elevation

Earthquake Activity

City Distance Mag. Time & Date
Minimum magnitude displayed is 2.5.

Coastal Water Temperatures

Place Temperature

Stations

Nearby Weather Stations

Station Location Temp. Windchill Dew Point Humidity Wind Precip. Elev Updated Type